CST,Max TemperatureF,Mean TemperatureF,Min TemperatureF,Max Dew PointF,MeanDew PointF,Min DewpointF,Max Humidity, Mean Humidity, Min Humidity, Max Sea Level PressureIn, Mean Sea Level PressureIn, Min Sea Level PressureIn, Max VisibilityMiles, Mean VisibilityMiles, Min VisibilityMiles, Max Wind SpeedMPH, Mean Wind SpeedMPH, Max Gust SpeedMPH,PrecipitationIn, CloudCover, Events, WindDirDegrees
2013-11-1,68,59,50,54,47,38,96,65,34,29.84,29.76,29.67,10,10,10,18,7,24,0.00,0,,246
2013-11-2,60,50,39,46,41,36,92,70,47,30.18,29.98,29.84,10,10,2,16,5,22,0.11,5,Rain-Thunderstorm,294
2013-11-3,57,44,31,40,35,30,100,74,47,30.35,30.27,30.19,10,6,1,9,2,13,0.00,0,,66
2013-11-4,62,49,36,43,39,34,92,67,42,30.39,30.33,30.29,10,10,10,18,5,23,0.00,0,,142
2013-11-5,68,57,46,44,41,36,80,60,39,30.40,30.31,30.22,10,10,10,12,4,15,0.00,2,,155
2013-11-6,71,58,45,61,54,41,100,79,57,30.22,30.10,30.03,10,7,2,24,9,32,0.56,7,Rain,238
2013-11-7,53,44,34,42,33,22,92,61,30,30.35,30.28,30.17,10,10,3,13,5,17,0.03,3,Rain,321
2013-11-8,56,42,28,34,27,23,92,61,29,30.43,30.35,30.27,10,10,10,7,1,,0.00,0,,90
2013-11-9,62,46,29,34,30,26,92,60,27,30.27,30.23,30.17,10,10,10,24,7,30,0.00,1,,220
2013-11-10,61,48,34,40,29,20,92,56,20,30.37,30.32,30.25,10,10,10,10,2,16,0.00,0,,319
2013-11-11,66,48,29,33,26,17,92,54,15,30.33,30.24,30.16,10,10,10,12,2,17,0.00,3,,247
2013-11-12,56,42,28,45,26,11,89,60,30,30.66,30.49,30.22,10,9,2,21,8,31,0.03,4,Rain-Snow,6
2013-11-13,44,34,23,24,20,14,88,59,30,30.73,30.61,30.46,10,10,10,6,1,12,0.00,0,,255
2013-11-14,55,38,21,26,18,11,88,53,18,30.45,30.34,30.20,10,10,10,16,4,22,0.00,0,,195
2013-11-15,55,42,29,48,39,22,100,75,50,30.23,30.16,30.11,10,7,0,10,2,13,0.06,6,Fog-Rain,155
2013-11-16,64,57,49,58,53,48,100,89,78,30.13,30.05,29.93,10,6,2,21,10,29,T,8,,174
2013-11-17,69,62,54,64,60,37,93,78,62,29.93,29.81,29.67,10,6,1,28,13,38,1.55,7,Rain-Thunderstorm,203
2013-11-18,60,50,39,41,33,26,83,58,32,30.26,30.13,29.95,10,10,10,21,5,28,0.00,0,,308
2013-11-19,49,41,32,29,28,26,75,59,42,30.34,30.28,30.25,10,10,10,15,6,18,0.00,0,,36
2013-11-20,60,45,29,33,29,26,85,58,31,30.28,30.23,30.17,10,10,10,15,4,18,0.00,0,,120
2013-11-21,64,51,37,54,44,31,85,71,56,30.30,30.25,30.18,10,10,10,20,8,24,0.01,3,Rain,160
2013-11-22,60,52,44,57,52,38,100,88,75,30.38,30.27,30.20,10,5,1,14,6,18,0.28,8,Rain,258
2013-11-23,46,35,24,37,24,12,79,53,27,30.61,30.47,30.37,10,10,10,17,8,28,0.00,4,,347
2013-11-24,34,27,19,15,12,9,67,53,38,30.73,30.62,30.52,10,10,10,15,6,20,0.00,0,,36
2013-11-25,44,35,26,32,25,13,100,64,27,30.49,30.33,30.22,10,5,0,15,5,21,0.12,7,Fog-Snow,158
2013-11-26,37,35,33,35,32,26,96,83,70,30.21,30.06,29.94,10,6,4,13,6,20,0.07,8,Rain-Snow,8
2013-11-27,35,27,18,25,15,9,70,56,42,30.40,30.21,30.01,10,10,10,21,8,25,0.00,3,,315
2013-11-28,41,28,14,19,14,10,81,56,30,30.51,30.45,30.37,10,10,10,16,4,22,0.00,0,,187
2013-11-29,49,34,19,24,21,16,91,63,34,30.63,30.55,30.48,10,10,9,7,1,10,0.00,0,,93
2013-11-30,57,40,23,30,24,20,96,61,26,30.48,30.37,30.25,10,9,6,20,5,25,0.00,0,,192